sensor_id;sensor_type;location;lat;lon;timestamp;P1;durP1;ratioP1;P2;durP2;ratioP2
74269;SDS011;62754;48.252;11.654;2022-11-03T00:01:46;7.07;;;3.60;;
74269;SDS011;62754;48.252;11.654;2022-11-03T00:04:14;9.35;;;4.03;;
74269;SDS011;62754;48.252;11.654;2022-11-03T00:06:42;8.32;;;4.35;;
74269;SDS011;62754;48.252;11.654;2022-11-03T00:09:10;7.20;;;3.67;;
74269;SDS011;62754;48.252;11.654;2022-11-03T00:11:37;8.00;;;4.03;;
74269;SDS011;62754;48.252;11.654;2022-11-03T00:14:05;6.97;;;3.65;;
74269;SDS011;62754;48.252;11.654;2022-11-03T00:16:31;7.85;;;3.90;;
74269;SDS011;62754;48.252;11.654;2022-11-03T00:18:57;7.20;;;3.55;;
74269;SDS011;62754;48.252;11.654;2022-11-03T00:21:23;5.93;;;3.25;;
74269;SDS011;62754;48.252;11.654;2022-11-03T00:23:49;5.55;;;3.55;;
74269;SDS011;62754;48.252;11.654;2022-11-03T00:28:54;5.82;;;3.55;;
74269;SDS011;62754;48.252;11.654;2022-11-03T00:31:23;6.15;;;3.80;;
74269;SDS011;62754;48.252;11.654;2022-11-03T00:33:50;8.02;;;3.45;;
74269;SDS011;62754;48.252;11.654;2022-11-03T00:36:18;8.43;;;3.88;;
74269;SDS011;62754;48.252;11.654;2022-11-03T00:38:45;5.45;;;3.53;;
74269;SDS011;62754;48.252;11.654;2022-11-03T00:41:11;6.68;;;3.20;;
74269;SDS011;62754;48.252;11.654;2022-11-03T00:43:38;6.75;;;3.45;;
74269;SDS011;62754;48.252;11.654;2022-11-03T00:46:05;4.30;;;2.60;;
74269;SDS011;62754;48.252;11.654;2022-11-03T00:48:31;6.22;;;3.03;;
74269;SDS011;62754;48.252;11.654;2022-11-03T00:53:49;8.60;;;3.72;;
74269;SDS011;62754;48.252;11.654;2022-11-03T00:56:18;6.80;;;3.47;;
74269;SDS011;62754;48.252;11.654;2022-11-03T00:58:49;5.82;;;3.70;;
74269;SDS011;62754;48.252;11.654;2022-11-03T01:03:43;5.32;;;3.05;;
74269;SDS011;62754;48.252;11.654;2022-11-03T01:06:11;5.65;;;3.33;;
74269;SDS011;62754;48.252;11.654;2022-11-03T01:08:36;6.40;;;3.50;;
74269;SDS011;62754;48.252;11.654;2022-11-03T01:11:14;5.97;;;3.10;;
74269;SDS011;62754;48.252;11.654;2022-11-03T01:16:07;7.55;;;3.30;;
74269;SDS011;62754;48.252;11.654;2022-11-03T01:18:33;5.60;;;3.20;;
74269;SDS011;62754;48.252;11.654;2022-11-03T01:20:59;5.68;;;3.92;;
74269;SDS011;62754;48.252;11.654;2022-11-03T01:23:25;5.63;;;3.40;;
74269;SDS011;62754;48.252;11.654;2022-11-03T01:25:50;5.45;;;3.35;;
74269;SDS011;62754;48.252;11.654;2022-11-03T01:28:16;5.97;;;3.60;;
74269;SDS011;62754;48.252;11.654;2022-11-03T01:30:42;5.07;;;3.20;;
74269;SDS011;62754;48.252;11.654;2022-11-03T01:33:08;7.55;;;4.18;;
74269;SDS011;62754;48.252;11.654;2022-11-03T01:35:33;5.80;;;3.17;;
74269;SDS011;62754;48.252;11.654;2022-11-03T01:37:59;6.15;;;2.90;;
74269;SDS011;62754;48.252;11.654;2022-11-03T01:40:25;4.85;;;2.30;;
74269;SDS011;62754;48.252;11.654;2022-11-03T01:42:50;3.63;;;2.47;;
74269;SDS011;62754;48.252;11.654;2022-11-03T01:45:16;4.88;;;2.38;;
74269;SDS011;62754;48.252;11.654;2022-11-03T01:47:42;4.25;;;2.70;;
74269;SDS011;62754;48.252;11.654;2022-11-03T01:50:09;7.65;;;3.35;;
74269;SDS011;62754;48.252;11.654;2022-11-03T01:52:52;20.90;;;3.97;;
74269;SDS011;62754;48.252;11.654;2022-11-03T01:55:26;25.50;;;4.38;;
74269;SDS011;62754;48.252;11.654;2022-11-03T02:00:30;37.10;;;4.90;;
74269;SDS011;62754;48.252;11.654;2022-11-03T02:02:56;20.38;;;3.90;;
74269;SDS011;62754;48.252;11.654;2022-11-03T02:05:23;34.75;;;5.13;;
74269;SDS011;62754;48.252;11.654;2022-11-03T02:10:40;19.67;;;3.88;;
74269;SDS011;62754;48.252;11.654;2022-11-03T02:13:09;11.68;;;4.22;;
74269;SDS011;62754;48.252;11.654;2022-11-03T02:15:44;10.75;;;3.70;;
74269;SDS011;62754;48.252;11.654;2022-11-03T02:18:12;6.90;;;3.97;;
74269;SDS011;62754;48.252;11.654;2022-11-03T02:20:40;8.82;;;3.90;;
74269;SDS011;62754;48.252;11.654;2022-11-03T02:25:42;5.65;;;4.10;;
74269;SDS011;62754;48.252;11.654;2022-11-03T02:28:10;14.50;;;4.85;;
74269;SDS011;62754;48.252;11.654;2022-11-03T02:30:41;8.52;;;3.78;;
74269;SDS011;62754;48.252;11.654;2022-11-03T02:33:28;5.78;;;3.90;;
74269;SDS011;62754;48.252;11.654;2022-11-03T02:40:53;7.90;;;3.72;;
74269;SDS011;62754;48.252;11.654;2022-11-03T02:43:23;5.80;;;4.03;;
74269;SDS011;62754;48.252;11.654;2022-11-03T02:45:50;5.90;;;3.75;;
74269;SDS011;62754;48.252;11.654;2022-11-03T02:48:20;4.95;;;3.40;;
74269;SDS011;62754;48.252;11.654;2022-11-03T02:50:46;5.55;;;3.80;;
74269;SDS011;62754;48.252;11.654;2022-11-03T02:53:12;5.68;;;3.70;;
74269;SDS011;62754;48.252;11.654;2022-11-03T02:55:41;6.47;;;4.43;;
74269;SDS011;62754;48.252;11.654;2022-11-03T03:03:23;8.18;;;5.13;;
74269;SDS011;62754;48.252;11.654;2022-11-03T03:05:55;19.20;;;5.30;;
74269;SDS011;62754;48.252;11.654;2022-11-03T03:08:26;12.13;;;5.38;;
74269;SDS011;62754;48.252;11.654;2022-11-03T03:10:54;7.10;;;4.45;;
74269;SDS011;62754;48.252;11.654;2022-11-03T03:13:25;9.57;;;4.90;;
74269;SDS011;62754;48.252;11.654;2022-11-03T03:16:02;7.75;;;4.80;;
74269;SDS011;62754;48.252;11.654;2022-11-03T03:21:10;7.55;;;4.95;;
74269;SDS011;62754;48.252;11.654;2022-11-03T03:23:44;8.90;;;4.68;;
74269;SDS011;62754;48.252;11.654;2022-11-03T03:26:18;9.00;;;5.22;;
74269;SDS011;62754;48.252;11.654;2022-11-03T03:28:50;20.25;;;5.55;;
74269;SDS011;62754;48.252;11.654;2022-11-03T03:31:19;31.52;;;6.53;;
74269;SDS011;62754;48.252;11.654;2022-11-03T03:33:49;51.63;;;6.93;;
74269;SDS011;62754;48.252;11.654;2022-11-03T03:36:18;58.22;;;7.65;;
74269;SDS011;62754;48.252;11.654;2022-11-03T03:38:54;20.33;;;6.13;;
74269;SDS011;62754;48.252;11.654;2022-11-03T03:41:23;64.80;;;8.48;;
74269;SDS011;62754;48.252;11.654;2022-11-03T03:43:53;74.50;;;8.75;;
74269;SDS011;62754;48.252;11.654;2022-11-03T03:46:23;76.22;;;8.93;;
74269;SDS011;62754;48.252;11.654;2022-11-03T03:48:56;47.72;;;6.30;;
74269;SDS011;62754;48.252;11.654;2022-11-03T03:51:23;109.93;;;8.52;;
74269;SDS011;62754;48.252;11.654;2022-11-03T03:53:52;106.28;;;9.18;;
74269;SDS011;62754;48.252;11.654;2022-11-03T03:56:22;107.70;;;8.95;;
74269;SDS011;62754;48.252;11.654;2022-11-03T03:59:10;37.22;;;5.93;;
74269;SDS011;62754;48.252;11.654;2022-11-03T04:01:36;40.80;;;6.18;;
74269;SDS011;62754;48.252;11.654;2022-11-03T04:04:02;55.83;;;6.75;;
74269;SDS011;62754;48.252;11.654;2022-11-03T04:06:27;93.30;;;7.20;;
74269;SDS011;62754;48.252;11.654;2022-11-03T04:08:53;56.45;;;6.35;;
74269;SDS011;62754;48.252;11.654;2022-11-03T04:11:19;52.60;;;6.13;;
74269;SDS011;62754;48.252;11.654;2022-11-03T04:13:45;50.88;;;6.10;;
74269;SDS011;62754;48.252;11.654;2022-11-03T04:16:11;51.30;;;6.68;;
74269;SDS011;62754;48.252;11.654;2022-11-03T04:18:37;63.83;;;7.60;;
74269;SDS011;62754;48.252;11.654;2022-11-03T04:21:03;68.13;;;7.20;;
74269;SDS011;62754;48.252;11.654;2022-11-03T04:25:55;96.47;;;8.23;;
74269;SDS011;62754;48.252;11.654;2022-11-03T04:28:23;105.63;;;8.95;;
74269;SDS011;62754;48.252;11.654;2022-11-03T04:30:50;66.85;;;7.38;;
74269;SDS011;62754;48.252;11.654;2022-11-03T04:33:16;28.20;;;5.28;;
74269;SDS011;62754;48.252;11.654;2022-11-03T04:35:44;70.70;;;6.45;;
74269;SDS011;62754;48.252;11.654;2022-11-03T04:40:43;79.20;;;7.20;;
74269;SDS011;62754;48.252;11.654;2022-11-03T04:43:11;63.40;;;7.30;;
74269;SDS011;62754;48.252;11.654;2022-11-03T04:45:39;71.78;;;6.45;;
74269;SDS011;62754;48.252;11.654;2022-11-03T04:48:14;58.38;;;6.93;;
74269;SDS011;62754;48.252;11.654;2022-11-03T04:50:48;51.13;;;6.82;;
74269;SDS011;62754;48.252;11.654;2022-11-03T04:53:16;67.78;;;7.22;;
74269;SDS011;62754;48.252;11.654;2022-11-03T04:55:44;51.85;;;6.25;;
74269;SDS011;62754;48.252;11.654;2022-11-03T05:00:43;26.27;;;4.90;;
74269;SDS011;62754;48.252;11.654;2022-11-03T05:03:25;40.08;;;5.63;;
74269;SDS011;62754;48.252;11.654;2022-11-03T05:05:54;16.92;;;4.45;;
74269;SDS011;62754;48.252;11.654;2022-11-03T05:08:20;27.92;;;5.05;;
74269;SDS011;62754;48.252;11.654;2022-11-03T05:10:46;13.77;;;4.28;;
74269;SDS011;62754;48.252;11.654;2022-11-03T05:13:26;34.17;;;5.60;;
74269;SDS011;62754;48.252;11.654;2022-11-03T05:18:26;11.85;;;4.53;;
74269;SDS011;62754;48.252;11.654;2022-11-03T05:23:26;18.33;;;4.63;;
74269;SDS011;62754;48.252;11.654;2022-11-03T05:25:57;16.70;;;4.25;;
74269;SDS011;62754;48.252;11.654;2022-11-03T05:34:00;11.95;;;4.72;;
74269;SDS011;62754;48.252;11.654;2022-11-03T05:36:35;7.50;;;4.70;;
74269;SDS011;62754;48.252;11.654;2022-11-03T05:39:12;6.53;;;4.65;;
74269;SDS011;62754;48.252;11.654;2022-11-03T05:41:50;7.47;;;4.90;;
74269;SDS011;62754;48.252;11.654;2022-11-03T05:46:59;5.55;;;4.20;;
74269;SDS011;62754;48.252;11.654;2022-11-03T05:49:26;5.30;;;3.70;;
74269;SDS011;62754;48.252;11.654;2022-11-03T05:51:54;5.30;;;4.18;;
74269;SDS011;62754;48.252;11.654;2022-11-03T05:54:26;5.63;;;3.95;;
74269;SDS011;62754;48.252;11.654;2022-11-03T05:56:56;5.13;;;3.92;;
74269;SDS011;62754;48.252;11.654;2022-11-03T05:59:23;7.22;;;3.85;;
74269;SDS011;62754;48.252;11.654;2022-11-03T06:01:52;5.60;;;4.90;;
74269;SDS011;62754;48.252;11.654;2022-11-03T06:04:33;9.13;;;5.00;;
74269;SDS011;62754;48.252;11.654;2022-11-03T06:07:03;10.15;;;4.50;;
74269;SDS011;62754;48.252;11.654;2022-11-03T06:09:45;8.68;;;4.20;;
74269;SDS011;62754;48.252;11.654;2022-11-03T06:12:12;20.92;;;6.75;;
74269;SDS011;62754;48.252;11.654;2022-11-03T06:14:42;23.65;;;6.28;;
74269;SDS011;62754;48.252;11.654;2022-11-03T06:17:16;27.73;;;5.63;;
74269;SDS011;62754;48.252;11.654;2022-11-03T06:19:48;35.88;;;6.93;;
74269;SDS011;62754;48.252;11.654;2022-11-03T06:22:20;40.67;;;6.82;;
74269;SDS011;62754;48.252;11.654;2022-11-03T06:24:55;59.80;;;8.77;;
74269;SDS011;62754;48.252;11.654;2022-11-03T06:27:24;25.38;;;6.07;;
74269;SDS011;62754;48.252;11.654;2022-11-03T06:29:55;42.53;;;7.47;;
74269;SDS011;62754;48.252;11.654;2022-11-03T06:32:23;56.90;;;9.93;;
74269;SDS011;62754;48.252;11.654;2022-11-03T06:34:51;32.65;;;9.45;;
74269;SDS011;62754;48.252;11.654;2022-11-03T06:37:23;38.67;;;10.55;;
74269;SDS011;62754;48.252;11.654;2022-11-03T06:40:02;42.83;;;9.38;;
74269;SDS011;62754;48.252;11.654;2022-11-03T06:42:40;22.55;;;7.07;;
74269;SDS011;62754;48.252;11.654;2022-11-03T06:47:41;33.05;;;7.28;;
74269;SDS011;62754;48.252;11.654;2022-11-03T06:50:18;41.20;;;7.88;;
74269;SDS011;62754;48.252;11.654;2022-11-03T06:52:47;48.65;;;8.45;;
74269;SDS011;62754;48.252;11.654;2022-11-03T06:55:21;38.20;;;12.07;;
74269;SDS011;62754;48.252;11.654;2022-11-03T06:57:48;53.50;;;7.85;;
74269;SDS011;62754;48.252;11.654;2022-11-03T07:00:21;18.52;;;6.85;;
74269;SDS011;62754;48.252;11.654;2022-11-03T07:02:52;43.28;;;14.55;;
74269;SDS011;62754;48.252;11.654;2022-11-03T07:05:23;40.72;;;16.63;;
74269;SDS011;62754;48.252;11.654;2022-11-03T07:07:51;56.90;;;16.70;;
74269;SDS011;62754;48.252;11.654;2022-11-03T07:10:21;43.63;;;7.85;;
74269;SDS011;62754;48.252;11.654;2022-11-03T07:12:49;50.92;;;8.23;;
74269;SDS011;62754;48.252;11.654;2022-11-03T07:15:15;31.50;;;9.38;;
74269;SDS011;62754;48.252;11.654;2022-11-03T07:17:48;42.85;;;14.65;;
74269;SDS011;62754;48.252;11.654;2022-11-03T07:20:15;49.15;;;9.13;;
74269;SDS011;62754;48.252;11.654;2022-11-03T07:27:40;52.15;;;14.30;;
74269;SDS011;62754;48.252;11.654;2022-11-03T07:32:32;40.80;;;17.17;;
74269;SDS011;62754;48.252;11.654;2022-11-03T07:37:46;22.42;;;10.43;;
74269;SDS011;62754;48.252;11.654;2022-11-03T07:40:15;34.80;;;8.93;;
74269;SDS011;62754;48.252;11.654;2022-11-03T07:42:43;22.33;;;8.02;;
74269;SDS011;62754;48.252;11.654;2022-11-03T07:47:56;34.95;;;7.82;;
74269;SDS011;62754;48.252;11.654;2022-11-03T07:50:22;51.53;;;8.63;;
74269;SDS011;62754;48.252;11.654;2022-11-03T07:52:48;38.72;;;8.18;;
74269;SDS011;62754;48.252;11.654;2022-11-03T07:55:16;71.78;;;8.88;;
74269;SDS011;62754;48.252;11.654;2022-11-03T07:57:42;21.40;;;7.18;;
74269;SDS011;62754;48.252;11.654;2022-11-03T08:00:09;50.58;;;9.05;;
74269;SDS011;62754;48.252;11.654;2022-11-03T08:02:45;27.35;;;7.55;;
74269;SDS011;62754;48.252;11.654;2022-11-03T08:05:15;40.92;;;7.70;;
74269;SDS011;62754;48.252;11.654;2022-11-03T08:07:41;34.50;;;8.02;;
74269;SDS011;62754;48.252;11.654;2022-11-03T08:10:07;68.78;;;9.55;;
74269;SDS011;62754;48.252;11.654;2022-11-03T08:12:33;41.75;;;8.52;;
74269;SDS011;62754;48.252;11.654;2022-11-03T08:14:59;30.73;;;7.55;;
74269;SDS011;62754;48.252;11.654;2022-11-03T08:17:25;80.82;;;9.98;;
74269;SDS011;62754;48.252;11.654;2022-11-03T08:19:51;30.38;;;7.80;;
74269;SDS011;62754;48.252;11.654;2022-11-03T08:22:17;23.73;;;8.23;;
74269;SDS011;62754;48.252;11.654;2022-11-03T08:24:42;33.78;;;8.50;;
74269;SDS011;62754;48.252;11.654;2022-11-03T08:27:08;29.20;;;9.38;;
74269;SDS011;62754;48.252;11.654;2022-11-03T08:29:34;18.35;;;9.93;;
74269;SDS011;62754;48.252;11.654;2022-11-03T08:32:00;22.95;;;8.90;;
74269;SDS011;62754;48.252;11.654;2022-11-03T08:34:25;35.10;;;10.98;;
74269;SDS011;62754;48.252;11.654;2022-11-03T08:36:51;16.58;;;8.35;;
74269;SDS011;62754;48.252;11.654;2022-11-03T08:39:17;32.47;;;10.38;;
74269;SDS011;62754;48.252;11.654;2022-11-03T08:41:43;36.15;;;9.23;;
74269;SDS011;62754;48.252;11.654;2022-11-03T08:44:08;17.17;;;8.30;;
74269;SDS011;62754;48.252;11.654;2022-11-03T08:46:34;26.35;;;8.02;;
74269;SDS011;62754;48.252;11.654;2022-11-03T08:49:00;42.85;;;9.52;;
74269;SDS011;62754;48.252;11.654;2022-11-03T08:51:26;14.02;;;8.35;;
74269;SDS011;62754;48.252;11.654;2022-11-03T08:53:51;38.67;;;9.02;;
74269;SDS011;62754;48.252;11.654;2022-11-03T08:56:17;37.67;;;9.82;;
74269;SDS011;62754;48.252;11.654;2022-11-03T08:58:43;15.73;;;8.55;;
74269;SDS011;62754;48.252;11.654;2022-11-03T09:01:09;35.15;;;8.35;;
74269;SDS011;62754;48.252;11.654;2022-11-03T09:03:34;16.42;;;7.53;;
74269;SDS011;62754;48.252;11.654;2022-11-03T09:06:00;22.92;;;7.82;;
74269;SDS011;62754;48.252;11.654;2022-11-03T09:08:26;11.85;;;6.90;;
74269;SDS011;62754;48.252;11.654;2022-11-03T09:10:52;11.30;;;7.35;;
74269;SDS011;62754;48.252;11.654;2022-11-03T09:13:17;10.10;;;6.53;;
74269;SDS011;62754;48.252;11.654;2022-11-03T09:15:43;9.63;;;5.68;;
74269;SDS011;62754;48.252;11.654;2022-11-03T09:18:09;9.70;;;6.15;;
74269;SDS011;62754;48.252;11.654;2022-11-03T09:20:35;17.80;;;6.22;;
74269;SDS011;62754;48.252;11.654;2022-11-03T09:23:00;9.98;;;6.85;;
74269;SDS011;62754;48.252;11.654;2022-11-03T09:25:26;9.43;;;6.55;;
74269;SDS011;62754;48.252;11.654;2022-11-03T09:27:52;11.77;;;6.55;;
74269;SDS011;62754;48.252;11.654;2022-11-03T09:30:18;10.10;;;6.47;;
74269;SDS011;62754;48.252;11.654;2022-11-03T09:32:44;10.95;;;6.20;;
74269;SDS011;62754;48.252;11.654;2022-11-03T09:35:09;10.27;;;6.85;;
74269;SDS011;62754;48.252;11.654;2022-11-03T09:37:35;10.60;;;6.20;;
74269;SDS011;62754;48.252;11.654;2022-11-03T09:40:01;9.52;;;6.32;;
74269;SDS011;62754;48.252;11.654;2022-11-03T09:42:27;13.10;;;5.68;;
74269;SDS011;62754;48.252;11.654;2022-11-03T09:44:53;12.10;;;6.03;;
74269;SDS011;62754;48.252;11.654;2022-11-03T09:47:23;8.55;;;5.78;;
74269;SDS011;62754;48.252;11.654;2022-11-03T09:49:53;9.07;;;6.00;;
74269;SDS011;62754;48.252;11.654;2022-11-03T09:52:20;8.57;;;5.50;;
74269;SDS011;62754;48.252;11.654;2022-11-03T09:54:48;10.60;;;5.85;;
74269;SDS011;62754;48.252;11.654;2022-11-03T09:57:15;10.60;;;5.97;;
74269;SDS011;62754;48.252;11.654;2022-11-03T09:59:42;8.57;;;5.03;;
74269;SDS011;62754;48.252;11.654;2022-11-03T10:02:28;8.27;;;5.43;;
74269;SDS011;62754;48.252;11.654;2022-11-03T10:04:56;9.65;;;6.18;;
74269;SDS011;62754;48.252;11.654;2022-11-03T10:07:24;9.85;;;5.68;;
74269;SDS011;62754;48.252;11.654;2022-11-03T10:09:51;8.90;;;5.78;;
74269;SDS011;62754;48.252;11.654;2022-11-03T10:12:18;8.50;;;6.15;;
74269;SDS011;62754;48.252;11.654;2022-11-03T10:14:47;14.43;;;9.15;;
74269;SDS011;62754;48.252;11.654;2022-11-03T10:17:14;12.55;;;6.80;;
74269;SDS011;62754;48.252;11.654;2022-11-03T10:19:43;7.28;;;5.03;;
74269;SDS011;62754;48.252;11.654;2022-11-03T10:22:12;9.90;;;6.10;;
74269;SDS011;62754;48.252;11.654;2022-11-03T10:24:38;11.35;;;7.00;;
74269;SDS011;62754;48.252;11.654;2022-11-03T10:27:05;13.27;;;6.95;;
74269;SDS011;62754;48.252;11.654;2022-11-03T10:29:45;8.68;;;6.70;;
74269;SDS011;62754;48.252;11.654;2022-11-03T10:32:28;10.00;;;5.68;;
74269;SDS011;62754;48.252;11.654;2022-11-03T10:34:55;9.45;;;5.75;;
74269;SDS011;62754;48.252;11.654;2022-11-03T10:39:51;9.10;;;6.20;;
74269;SDS011;62754;48.252;11.654;2022-11-03T10:42:22;10.02;;;5.70;;
74269;SDS011;62754;48.252;11.654;2022-11-03T10:44:52;8.20;;;5.07;;
74269;SDS011;62754;48.252;11.654;2022-11-03T10:47:23;9.68;;;5.85;;
74269;SDS011;62754;48.252;11.654;2022-11-03T10:49:56;8.00;;;4.93;;
74269;SDS011;62754;48.252;11.654;2022-11-03T10:52:24;8.95;;;4.88;;
74269;SDS011;62754;48.252;11.654;2022-11-03T10:54:52;8.48;;;5.47;;
74269;SDS011;62754;48.252;11.654;2022-11-03T10:57:20;7.13;;;5.13;;
74269;SDS011;62754;48.252;11.654;2022-11-03T11:02:18;9.60;;;5.20;;
74269;SDS011;62754;48.252;11.654;2022-11-03T11:04:46;7.80;;;5.60;;
74269;SDS011;62754;48.252;11.654;2022-11-03T11:07:20;10.57;;;5.15;;
74269;SDS011;62754;48.252;11.654;2022-11-03T11:09:48;7.55;;;4.70;;
74269;SDS011;62754;48.252;11.654;2022-11-03T11:12:15;7.18;;;5.38;;
74269;SDS011;62754;48.252;11.654;2022-11-03T11:14:53;7.47;;;5.35;;
74269;SDS011;62754;48.252;11.654;2022-11-03T11:22:39;8.93;;;4.57;;
74269;SDS011;62754;48.252;11.654;2022-11-03T11:25:05;6.38;;;4.43;;
74269;SDS011;62754;48.252;11.654;2022-11-03T11:30:00;7.68;;;5.22;;
74269;SDS011;62754;48.252;11.654;2022-11-03T11:35:10;8.10;;;4.75;;
74269;SDS011;62754;48.252;11.654;2022-11-03T11:37:40;7.85;;;4.78;;
74269;SDS011;62754;48.252;11.654;2022-11-03T11:48:33;8.60;;;4.90;;
74269;SDS011;62754;48.252;11.654;2022-11-03T11:50:59;9.75;;;5.45;;
74269;SDS011;62754;48.252;11.654;2022-11-03T11:53:26;9.15;;;5.55;;
74269;SDS011;62754;48.252;11.654;2022-11-03T11:55:56;8.38;;;6.13;;
74269;SDS011;62754;48.252;11.654;2022-11-03T11:58:24;12.85;;;6.35;;
74269;SDS011;62754;48.252;11.654;2022-11-03T12:00:56;8.30;;;5.63;;
74269;SDS011;62754;48.252;11.654;2022-11-03T12:03:25;9.57;;;6.00;;
74269;SDS011;62754;48.252;11.654;2022-11-03T12:06:01;9.13;;;5.80;;
74269;SDS011;62754;48.252;11.654;2022-11-03T12:08:28;10.15;;;6.68;;
74269;SDS011;62754;48.252;11.654;2022-11-03T12:10:55;8.88;;;5.60;;
74269;SDS011;62754;48.252;11.654;2022-11-03T12:22:02;9.30;;;5.78;;
74269;SDS011;62754;48.252;11.654;2022-11-03T12:26:58;8.23;;;5.63;;
74269;SDS011;62754;48.252;11.654;2022-11-03T12:29:24;10.02;;;6.68;;
74269;SDS011;62754;48.252;11.654;2022-11-03T12:31:50;9.75;;;6.30;;
74269;SDS011;62754;48.252;11.654;2022-11-03T12:34:17;9.65;;;6.80;;
74269;SDS011;62754;48.252;11.654;2022-11-03T12:36:43;8.95;;;5.78;;
74269;SDS011;62754;48.252;11.654;2022-11-03T12:39:09;9.77;;;5.88;;
74269;SDS011;62754;48.252;11.654;2022-11-03T12:41:35;8.32;;;6.25;;
74269;SDS011;62754;48.252;11.654;2022-11-03T12:44:01;9.35;;;6.18;;
74269;SDS011;62754;48.252;11.654;2022-11-03T12:46:27;7.63;;;5.53;;
74269;SDS011;62754;48.252;11.654;2022-11-03T12:48:53;10.90;;;6.00;;
74269;SDS011;62754;48.252;11.654;2022-11-03T12:51:19;6.70;;;5.00;;
74269;SDS011;62754;48.252;11.654;2022-11-03T12:53:46;9.38;;;6.53;;
74269;SDS011;62754;48.252;11.654;2022-11-03T12:56:13;8.10;;;6.05;;
74269;SDS011;62754;48.252;11.654;2022-11-03T12:58:39;8.55;;;6.20;;
74269;SDS011;62754;48.252;11.654;2022-11-03T13:01:06;9.32;;;5.88;;
74269;SDS011;62754;48.252;11.654;2022-11-03T13:03:32;8.60;;;5.75;;
74269;SDS011;62754;48.252;11.654;2022-11-03T13:05:59;8.93;;;5.88;;
74269;SDS011;62754;48.252;11.654;2022-11-03T13:08:25;8.82;;;6.20;;
74269;SDS011;62754;48.252;11.654;2022-11-03T13:10:51;9.00;;;6.10;;
74269;SDS011;62754;48.252;11.654;2022-11-03T13:13:17;8.48;;;6.13;;
74269;SDS011;62754;48.252;11.654;2022-11-03T13:15:43;9.07;;;6.45;;
74269;SDS011;62754;48.252;11.654;2022-11-03T13:18:09;7.97;;;5.90;;
74269;SDS011;62754;48.252;11.654;2022-11-03T13:20:35;9.20;;;6.28;;
74269;SDS011;62754;48.252;11.654;2022-11-03T13:23:02;8.75;;;6.30;;
74269;SDS011;62754;48.252;11.654;2022-11-03T13:25:29;11.15;;;7.75;;
74269;SDS011;62754;48.252;11.654;2022-11-03T13:27:55;10.13;;;7.38;;
74269;SDS011;62754;48.252;11.654;2022-11-03T13:30:24;11.18;;;8.13;;
74269;SDS011;62754;48.252;11.654;2022-11-03T13:32:51;10.65;;;7.47;;
74269;SDS011;62754;48.252;11.654;2022-11-03T13:35:17;13.68;;;8.90;;
74269;SDS011;62754;48.252;11.654;2022-11-03T13:37:44;12.70;;;8.07;;
74269;SDS011;62754;48.252;11.654;2022-11-03T13:40:13;10.52;;;7.32;;
74269;SDS011;62754;48.252;11.654;2022-11-03T13:42:40;10.90;;;7.22;;
74269;SDS011;62754;48.252;11.654;2022-11-03T13:45:06;13.73;;;9.57;;
74269;SDS011;62754;48.252;11.654;2022-11-03T13:49:59;16.60;;;10.50;;
74269;SDS011;62754;48.252;11.654;2022-11-03T13:52:28;15.68;;;9.70;;
74269;SDS011;62754;48.252;11.654;2022-11-03T13:54:53;16.98;;;10.68;;
74269;SDS011;62754;48.252;11.654;2022-11-03T13:57:20;15.93;;;9.95;;
74269;SDS011;62754;48.252;11.654;2022-11-03T13:59:46;18.77;;;11.63;;
74269;SDS011;62754;48.252;11.654;2022-11-03T14:02:12;17.30;;;11.63;;
74269;SDS011;62754;48.252;11.654;2022-11-03T14:04:38;18.23;;;11.60;;
74269;SDS011;62754;48.252;11.654;2022-11-03T14:07:06;19.13;;;11.88;;
74269;SDS011;62754;48.252;11.654;2022-11-03T14:09:32;17.52;;;11.65;;
74269;SDS011;62754;48.252;11.654;2022-11-03T14:11:58;17.00;;;10.70;;
74269;SDS011;62754;48.252;11.654;2022-11-03T14:14:24;16.58;;;10.20;;
74269;SDS011;62754;48.252;11.654;2022-11-03T14:16:50;14.63;;;10.30;;
74269;SDS011;62754;48.252;11.654;2022-11-03T14:19:15;14.73;;;10.50;;
74269;SDS011;62754;48.252;11.654;2022-11-03T14:21:41;15.38;;;10.70;;
74269;SDS011;62754;48.252;11.654;2022-11-03T14:24:07;16.33;;;10.70;;
74269;SDS011;62754;48.252;11.654;2022-11-03T14:26:33;14.63;;;9.48;;
74269;SDS011;62754;48.252;11.654;2022-11-03T14:28:59;17.08;;;9.95;;
74269;SDS011;62754;48.252;11.654;2022-11-03T14:31:24;16.52;;;9.75;;
74269;SDS011;62754;48.252;11.654;2022-11-03T14:33:50;15.23;;;9.85;;
74269;SDS011;62754;48.252;11.654;2022-11-03T14:36:16;15.55;;;9.88;;
74269;SDS011;62754;48.252;11.654;2022-11-03T14:38:42;13.48;;;9.77;;
74269;SDS011;62754;48.252;11.654;2022-11-03T14:41:07;14.70;;;10.23;;
74269;SDS011;62754;48.252;11.654;2022-11-03T14:43:33;18.23;;;10.60;;
74269;SDS011;62754;48.252;11.654;2022-11-03T14:45:59;14.75;;;9.95;;
74269;SDS011;62754;48.252;11.654;2022-11-03T14:48:25;18.77;;;10.68;;
74269;SDS011;62754;48.252;11.654;2022-11-03T14:50:51;17.50;;;11.57;;
74269;SDS011;62754;48.252;11.654;2022-11-03T14:53:16;17.27;;;11.13;;
74269;SDS011;62754;48.252;11.654;2022-11-03T14:55:42;16.08;;;10.40;;
74269;SDS011;62754;48.252;11.654;2022-11-03T14:58:08;16.48;;;10.65;;
74269;SDS011;62754;48.252;11.654;2022-11-03T15:00:34;16.00;;;11.05;;
74269;SDS011;62754;48.252;11.654;2022-11-03T15:02:59;15.55;;;10.07;;
74269;SDS011;62754;48.252;11.654;2022-11-03T15:05:25;16.80;;;9.77;;
74269;SDS011;62754;48.252;11.654;2022-11-03T15:07:51;16.58;;;10.55;;
74269;SDS011;62754;48.252;11.654;2022-11-03T15:10:17;15.48;;;10.32;;
74269;SDS011;62754;48.252;11.654;2022-11-03T15:12:42;17.48;;;11.23;;
74269;SDS011;62754;48.252;11.654;2022-11-03T15:15:08;18.60;;;11.18;;
74269;SDS011;62754;48.252;11.654;2022-11-03T15:17:34;17.50;;;10.98;;
74269;SDS011;62754;48.252;11.654;2022-11-03T15:20:00;15.02;;;10.35;;
74269;SDS011;62754;48.252;11.654;2022-11-03T15:22:25;16.35;;;11.23;;
74269;SDS011;62754;48.252;11.654;2022-11-03T15:24:51;16.33;;;10.48;;
74269;SDS011;62754;48.252;11.654;2022-11-03T15:27:17;16.88;;;10.63;;
74269;SDS011;62754;48.252;11.654;2022-11-03T15:29:43;17.20;;;10.75;;
74269;SDS011;62754;48.252;11.654;2022-11-03T15:32:08;16.48;;;11.25;;
74269;SDS011;62754;48.252;11.654;2022-11-03T15:34:34;15.55;;;10.35;;
74269;SDS011;62754;48.252;11.654;2022-11-03T15:37:00;14.23;;;9.50;;
74269;SDS011;62754;48.252;11.654;2022-11-03T15:39:26;17.35;;;11.30;;
74269;SDS011;62754;48.252;11.654;2022-11-03T15:41:51;17.30;;;10.93;;
74269;SDS011;62754;48.252;11.654;2022-11-03T15:44:17;17.42;;;10.77;;
74269;SDS011;62754;48.252;11.654;2022-11-03T15:46:43;17.00;;;11.68;;
74269;SDS011;62754;48.252;11.654;2022-11-03T15:49:09;21.48;;;12.13;;
74269;SDS011;62754;48.252;11.654;2022-11-03T15:51:34;17.25;;;12.43;;
74269;SDS011;62754;48.252;11.654;2022-11-03T15:54:00;20.25;;;12.40;;
74269;SDS011;62754;48.252;11.654;2022-11-03T15:56:26;19.63;;;11.40;;
74269;SDS011;62754;48.252;11.654;2022-11-03T15:58:52;18.02;;;11.07;;
74269;SDS011;62754;48.252;11.654;2022-11-03T16:01:17;19.35;;;11.05;;
74269;SDS011;62754;48.252;11.654;2022-11-03T16:03:43;19.98;;;12.25;;
74269;SDS011;62754;48.252;11.654;2022-11-03T16:06:09;18.20;;;12.35;;
74269;SDS011;62754;48.252;11.654;2022-11-03T16:08:35;21.95;;;11.63;;
74269;SDS011;62754;48.252;11.654;2022-11-03T16:11:00;18.65;;;11.63;;
74269;SDS011;62754;48.252;11.654;2022-11-03T16:13:26;17.77;;;10.55;;